createdAt,value
2017-08-07T00:02:15.472Z,5.43
2017-08-07T00:04:43.129Z,5.83
2017-08-07T00:07:10.800Z,5.17
2017-08-07T00:09:38.433Z,5.67
2017-08-07T00:12:06.079Z,6.50
2017-08-07T00:14:33.727Z,6.30
2017-08-07T00:17:01.382Z,5.57
2017-08-07T00:19:28.992Z,6.30
2017-08-07T00:21:56.948Z,6.03
2017-08-07T00:24:24.541Z,6.20
2017-08-07T00:26:52.164Z,5.93
2017-08-07T00:29:19.807Z,5.80
2017-08-07T00:31:48.264Z,6.13
2017-08-07T00:34:15.894Z,6.33
2017-08-07T00:36:43.509Z,5.80
2017-08-07T00:39:11.411Z,6.17
2017-08-07T00:41:39.046Z,6.47
2017-08-07T00:44:06.677Z,6.20
2017-08-07T00:46:34.299Z,6.30
2017-08-07T00:49:01.913Z,6.30
2017-08-07T00:51:31.731Z,6.60
2017-08-07T00:53:59.341Z,6.23
2017-08-07T00:56:27.287Z,6.63
2017-08-07T00:58:54.888Z,6.63
2017-08-07T01:01:22.580Z,6.50
2017-08-07T01:03:50.335Z,7.43
2017-08-07T01:06:18.000Z,5.63
2017-08-07T01:08:45.647Z,6.17
2017-08-07T01:11:13.258Z,5.27
2017-08-07T01:13:40.889Z,4.83
2017-08-07T01:16:08.502Z,4.40
2017-08-07T01:18:36.433Z,4.90
2017-08-07T01:21:04.047Z,4.50
2017-08-07T01:23:31.705Z,5.13
2017-08-07T01:25:59.582Z,5.40
2017-08-07T01:28:27.199Z,5.33
2017-08-07T01:30:54.856Z,5.40
2017-08-07T01:33:23.518Z,5.27
2017-08-07T01:35:51.157Z,5.90
2017-08-07T01:38:18.789Z,6.00
2017-08-07T01:40:46.379Z,5.53
2017-08-07T01:43:14.011Z,5.40
2017-08-07T01:45:41.644Z,5.27
2017-08-07T01:48:09.624Z,4.93
2017-08-07T01:50:37.239Z,5.37
2017-08-07T01:53:04.864Z,5.20
2017-08-07T01:55:32.509Z,5.37
2017-08-07T01:58:00.131Z,4.97
2017-08-07T02:00:27.764Z,5.47
2017-08-07T02:02:55.377Z,4.80
2017-08-07T02:05:23.365Z,4.87
2017-08-07T02:07:50.990Z,4.37
2017-08-07T02:10:19.286Z,3.30
2017-08-07T02:12:46.931Z,3.77
2017-08-07T02:15:14.545Z,3.73
2017-08-07T02:17:42.179Z,4.30
2017-08-07T02:20:10.777Z,3.70
2017-08-07T02:22:38.459Z,4.93
2017-08-07T02:25:06.074Z,4.73
2017-08-07T02:27:34.096Z,4.80
2017-08-07T02:30:01.806Z,5.30
2017-08-07T02:32:29.519Z,4.27
2017-08-07T02:34:57.144Z,4.57
2017-08-07T02:37:24.748Z,4.80
2017-08-07T02:39:52.574Z,5.03
2017-08-07T02:42:20.200Z,5.80
2017-08-07T02:44:47.859Z,6.00
2017-08-07T02:47:15.493Z,6.43
2017-08-07T02:49:43.542Z,6.30
2017-08-07T02:52:11.374Z,6.20
2017-08-07T02:54:39.116Z,6.67
2017-08-07T02:57:06.997Z,7.17
2017-08-07T02:59:34.599Z,6.90
2017-08-07T03:02:02.250Z,7.00
2017-08-07T03:04:32.891Z,7.03
2017-08-07T03:07:00.865Z,7.80
2017-08-07T03:09:28.472Z,7.40
2017-08-07T03:11:57.861Z,9.23
2017-08-07T03:14:26.557Z,8.90
2017-08-07T03:16:54.266Z,9.10
2017-08-07T03:19:22.255Z,8.97
2017-08-07T03:21:49.890Z,8.30
2017-08-07T03:24:17.533Z,8.90
2017-08-07T03:26:46.071Z,9.10
2017-08-07T03:29:13.676Z,9.80
2017-08-07T03:31:41.325Z,8.63
2017-08-07T03:34:08.942Z,8.37
2017-08-07T03:36:36.919Z,8.57
2017-08-07T03:39:04.527Z,7.70
2017-08-07T03:41:32.140Z,8.70
2017-08-07T03:43:59.794Z,9.13
2017-08-07T03:46:27.410Z,7.47
2017-08-07T03:48:55.033Z,8.80
2017-08-07T03:51:22.667Z,9.00
2017-08-07T03:53:50.637Z,8.93
2017-08-07T03:56:18.352Z,9.20
2017-08-07T03:58:46.045Z,10.50
2017-08-07T04:01:13.718Z,10.10
2017-08-07T04:03:41.310Z,9.90
2017-08-07T04:06:08.959Z,9.70
2017-08-07T04:08:36.576Z,10.00
2017-08-07T04:11:04.315Z,10.20
2017-08-07T04:13:31.955Z,9.80
2017-08-07T04:15:59.554Z,10.10
2017-08-07T04:18:27.216Z,11.47
2017-08-07T04:20:54.921Z,11.10
2017-08-07T04:23:22.613Z,12.90
2017-08-07T04:25:50.253Z,11.80
2017-08-07T04:28:17.896Z,12.17
2017-08-07T04:30:45.507Z,12.40
2017-08-07T04:33:13.159Z,10.67
2017-08-07T04:35:40.784Z,12.27
2017-08-07T04:38:08.772Z,11.93
2017-08-07T04:40:36.391Z,13.13
2017-08-07T04:43:04.178Z,11.90
2017-08-07T04:45:31.831Z,11.67
2017-08-07T04:47:59.474Z,11.53
2017-08-07T04:50:27.200Z,12.00
2017-08-07T04:52:54.924Z,14.33
2017-08-07T04:55:22.827Z,14.70
2017-08-07T04:57:50.753Z,15.30
2017-08-07T05:00:18.382Z,15.80
2017-08-07T05:02:46.028Z,19.43
2017-08-07T05:05:13.836Z,14.90
2017-08-07T05:07:41.482Z,13.70
2017-08-07T05:10:09.126Z,16.00
2017-08-07T05:12:36.885Z,17.57
2017-08-07T05:15:04.968Z,18.43
2017-08-07T05:17:32.988Z,17.33
2017-08-07T05:20:00.628Z,15.73
2017-08-07T05:22:28.252Z,15.53
2017-08-07T05:24:55.911Z,15.40
2017-08-07T05:27:23.510Z,12.20
2017-08-07T05:29:51.191Z,12.13
2017-08-07T05:32:18.834Z,11.77
2017-08-07T05:34:46.549Z,11.47
2017-08-07T05:37:14.182Z,10.70
2017-08-07T05:39:42.155Z,9.73
2017-08-07T05:42:09.806Z,9.90
2017-08-07T05:44:37.521Z,9.60
2017-08-07T05:47:05.158Z,9.33
2017-08-07T05:49:32.778Z,9.43
2017-08-07T05:52:00.498Z,9.30
2017-08-07T05:54:28.111Z,9.97
2017-08-07T05:56:56.122Z,10.47
2017-08-07T05:59:23.773Z,10.20
2017-08-07T06:01:51.404Z,10.33
2017-08-07T06:04:19.034Z,10.47
2017-08-07T06:06:46.649Z,11.00
2017-08-07T06:09:14.301Z,9.73
2017-08-07T06:11:41.913Z,9.80
2017-08-07T06:14:09.675Z,10.20
2017-08-07T06:16:37.378Z,11.20
2017-08-07T06:19:05.679Z,12.33
2017-08-07T06:21:33.382Z,11.47
2017-08-07T06:24:01.005Z,11.40
2017-08-07T06:26:28.647Z,11.10
2017-08-07T06:28:56.280Z,9.47
2017-08-07T06:31:23.908Z,9.70
2017-08-07T06:33:51.522Z,9.37
2017-08-07T06:36:19.432Z,10.10
2017-08-07T06:38:47.063Z,9.23
2017-08-07T06:41:14.765Z,10.20
2017-08-07T06:43:42.421Z,9.73
2017-08-07T06:46:10.397Z,8.63
2017-08-07T06:48:38.071Z,9.50
2017-08-07T06:51:05.686Z,9.33
2017-08-07T06:53:33.323Z,9.70
2017-08-07T06:56:01.059Z,9.00
2017-08-07T06:58:29.022Z,10.00
2017-08-07T07:00:56.840Z,8.70
2017-08-07T07:03:24.552Z,9.83
2017-08-07T07:05:52.304Z,9.97
2017-08-07T07:08:19.978Z,8.63
2017-08-07T07:10:47.613Z,9.60
2017-08-07T07:13:15.242Z,11.93
2017-08-07T07:15:42.870Z,11.93
2017-08-07T07:18:12.995Z,13.17
2017-08-07T07:20:40.657Z,12.67
2017-08-07T07:23:08.263Z,12.37
2017-08-07T07:25:36.308Z,13.80
2017-08-07T07:28:04.034Z,14.70
2017-08-07T07:30:32.340Z,14.37
2017-08-07T07:32:59.983Z,12.57
2017-08-07T07:35:27.612Z,15.10
2017-08-07T07:37:55.427Z,12.60
2017-08-07T07:40:23.086Z,12.57
2017-08-07T07:42:51.114Z,12.90
2017-08-07T07:45:18.745Z,13.13
2017-08-07T07:47:46.366Z,12.67
2017-08-07T07:50:14.222Z,12.50
2017-08-07T07:52:41.910Z,12.53
2017-08-07T07:55:09.550Z,13.43
2017-08-07T07:57:37.161Z,13.60
2017-08-07T08:00:04.808Z,15.37
2017-08-07T08:02:32.466Z,15.37
2017-08-07T08:05:00.104Z,15.10
2017-08-07T08:07:27.756Z,13.70
2017-08-07T08:09:55.804Z,14.80
2017-08-07T08:12:23.404Z,13.70
2017-08-07T08:14:51.029Z,15.07
2017-08-07T08:17:18.675Z,15.50
2017-08-07T08:19:46.304Z,15.70
2017-08-07T08:22:14.328Z,16.70
2017-08-07T08:24:41.951Z,16.33
2017-08-07T08:27:09.849Z,16.13
2017-08-07T08:29:37.497Z,16.17
2017-08-07T08:32:05.112Z,15.80
2017-08-07T08:34:32.757Z,14.53
2017-08-07T08:37:00.388Z,15.27
2017-08-07T08:39:28.368Z,14.30
2017-08-07T08:41:55.998Z,13.50
2017-08-07T08:44:23.620Z,13.40
2017-08-07T08:46:51.239Z,13.60
2017-08-07T08:49:18.868Z,14.53
2017-08-07T08:51:46.519Z,13.80
2017-08-07T08:54:14.280Z,13.30
2017-08-07T08:56:42.023Z,13.03
2017-08-07T08:59:09.640Z,13.20
2017-08-07T09:01:37.279Z,12.33
2017-08-07T09:04:04.937Z,10.70
2017-08-07T09:06:33.359Z,11.13
2017-08-07T09:09:01.251Z,8.93
2017-08-07T09:11:28.886Z,10.40
2017-08-07T09:13:56.610Z,25.33
2017-08-07T09:16:24.524Z,7.47
2017-08-07T09:18:52.147Z,14.90
2017-08-07T09:21:19.770Z,8.83
2017-08-07T09:23:47.406Z,8.40
2017-08-07T09:26:15.399Z,12.93
2017-08-07T09:28:43.044Z,7.40
2017-08-07T09:31:10.669Z,6.33
2017-08-07T09:33:38.316Z,5.47
2017-08-07T09:36:05.943Z,5.60
2017-08-07T09:38:33.583Z,4.63
2017-08-07T09:41:01.312Z,4.70
2017-08-07T09:43:28.960Z,5.53
2017-08-07T09:45:56.579Z,4.27
2017-08-07T09:48:24.485Z,4.10
2017-08-07T09:50:52.115Z,3.97
2017-08-07T09:53:19.714Z,4.13
2017-08-07T09:55:47.495Z,4.20
2017-08-07T09:58:15.205Z,4.73
2017-08-07T10:00:43.595Z,4.80
2017-08-07T10:03:11.209Z,3.93
2017-08-07T10:05:38.843Z,4.33
2017-08-07T10:08:06.503Z,4.17
2017-08-07T10:10:34.108Z,4.30
2017-08-07T10:13:01.751Z,4.00
2017-08-07T10:15:29.366Z,4.17
2017-08-07T10:17:57.316Z,3.47
2017-08-07T10:20:24.931Z,3.67
2017-08-07T10:22:52.664Z,3.83
2017-08-07T10:25:20.336Z,3.50
2017-08-07T10:27:48.041Z,3.57
2017-08-07T10:30:15.680Z,3.37
2017-08-07T10:32:43.312Z,3.80
2017-08-07T10:35:11.402Z,3.87
2017-08-07T10:37:40.090Z,3.60
2017-08-07T10:40:07.792Z,4.67
2017-08-07T10:42:35.438Z,4.60
2017-08-07T10:45:03.054Z,4.27
2017-08-07T10:47:30.711Z,4.10
2017-08-07T10:49:58.354Z,3.30
2017-08-07T10:52:25.988Z,3.80
2017-08-07T10:54:53.611Z,4.17
2017-08-07T10:57:21.562Z,3.57
2017-08-07T10:59:49.192Z,3.90
2017-08-07T11:02:16.799Z,3.97
2017-08-07T11:04:44.435Z,3.57
2017-08-07T11:07:12.061Z,3.67
2017-08-07T11:09:39.705Z,3.43
2017-08-07T11:12:07.414Z,3.37
2017-08-07T11:14:35.081Z,3.97
2017-08-07T11:17:02.699Z,3.90
2017-08-07T11:19:30.709Z,3.60
2017-08-07T11:21:58.343Z,3.75
2017-08-07T11:24:25.962Z,3.80
2017-08-07T11:26:53.598Z,4.40
2017-08-07T11:29:21.217Z,4.00
2017-08-07T11:31:48.874Z,4.17
2017-08-07T11:34:16.503Z,3.63
2017-08-07T11:36:44.435Z,3.27
2017-08-07T11:39:12.066Z,4.73
2017-08-07T11:41:39.697Z,3.70
2017-08-07T11:44:07.341Z,3.50
2017-08-07T11:46:34.944Z,3.60
2017-08-07T11:49:02.586Z,3.40
2017-08-07T11:51:30.196Z,3.00
2017-08-07T11:53:58.204Z,3.60
2017-08-07T11:56:25.864Z,3.20
2017-08-07T11:58:53.471Z,5.50
2017-08-07T12:01:21.106Z,3.40
2017-08-07T12:03:48.704Z,3.23
2017-08-07T12:06:16.755Z,5.67
2017-08-07T12:08:44.371Z,3.90
2017-08-07T12:11:11.993Z,3.50
2017-08-07T12:13:39.626Z,3.50
2017-08-07T12:16:07.250Z,3.37
2017-08-07T12:18:35.907Z,3.80
2017-08-07T12:21:03.517Z,4.23
2017-08-07T12:23:31.154Z,4.20
2017-08-07T12:25:58.855Z,3.43
2017-08-07T12:28:26.813Z,3.03
2017-08-07T12:30:54.426Z,3.53
2017-08-07T12:33:22.057Z,3.23
2017-08-07T12:35:49.700Z,3.53
2017-08-07T12:38:17.309Z,3.97
2017-08-07T12:40:44.942Z,4.40
2017-08-07T12:43:12.981Z,4.00
2017-08-07T12:45:40.653Z,4.23
2017-08-07T12:48:08.260Z,4.20
2017-08-07T12:50:36.329Z,3.63
2017-08-07T12:53:03.940Z,4.00
2017-08-07T12:55:31.573Z,4.50
2017-08-07T12:57:59.235Z,4.00
2017-08-07T13:00:26.920Z,4.20
2017-08-07T13:02:54.565Z,5.30
2017-08-07T13:05:22.186Z,3.90
2017-08-07T13:07:50.158Z,4.40
2017-08-07T13:10:17.758Z,4.40
2017-08-07T13:12:45.368Z,4.23
2017-08-07T13:15:13.097Z,4.00
2017-08-07T13:17:40.720Z,3.87
2017-08-07T13:20:08.430Z,4.27
2017-08-07T13:22:36.110Z,3.80
2017-08-07T13:25:03.888Z,3.80
2017-08-07T13:27:31.506Z,4.50
2017-08-07T13:29:59.503Z,4.00
2017-08-07T13:32:27.129Z,3.97
2017-08-07T13:34:54.755Z,3.30
2017-08-07T13:37:22.425Z,3.50
2017-08-07T13:39:50.672Z,3.60
2017-08-07T13:42:18.308Z,4.27
2017-08-07T13:44:45.926Z,4.30
2017-08-07T13:47:13.593Z,3.90
2017-08-07T13:49:41.222Z,4.00
2017-08-07T13:52:09.266Z,4.50
2017-08-07T13:54:36.939Z,4.03
2017-08-07T13:57:04.586Z,3.50
2017-08-07T13:59:32.224Z,3.80
2017-08-07T14:01:59.849Z,4.07
2017-08-07T14:04:27.531Z,3.70
2017-08-07T14:06:55.165Z,3.80
2017-08-07T14:09:23.114Z,4.40
2017-08-07T14:11:50.736Z,3.57
2017-08-07T14:14:18.378Z,3.63
2017-08-07T14:16:46.123Z,3.80
2017-08-07T14:19:13.830Z,3.37
2017-08-07T14:21:41.511Z,3.53
2017-08-07T14:24:09.132Z,3.20
2017-08-07T14:26:36.888Z,3.00
2017-08-07T14:29:04.528Z,4.30
2017-08-07T14:31:32.482Z,3.90
2017-08-07T14:34:00.097Z,4.00
2017-08-07T14:36:27.733Z,3.67
2017-08-07T14:38:55.367Z,3.27
2017-08-07T14:41:23.073Z,3.70
2017-08-07T14:43:51.133Z,3.97
2017-08-07T14:46:18.761Z,3.20
2017-08-07T14:48:46.388Z,3.40
2017-08-07T14:51:14.032Z,3.53
2017-08-07T14:53:41.676Z,3.10
2017-08-07T14:56:09.309Z,3.40
2017-08-07T14:58:36.930Z,3.40
2017-08-07T15:01:04.560Z,2.67
2017-08-07T15:03:32.187Z,3.07
2017-08-07T15:06:00.276Z,2.67
2017-08-07T15:08:28.052Z,2.70
2017-08-07T15:10:55.681Z,3.03
2017-08-07T15:13:23.341Z,2.50
2017-08-07T15:15:51.032Z,3.30
2017-08-07T15:18:18.754Z,3.77
2017-08-07T15:20:46.476Z,3.20
2017-08-07T15:23:14.125Z,3.07
2017-08-07T15:25:41.750Z,3.00
2017-08-07T15:28:09.740Z,3.30
2017-08-07T15:30:37.359Z,3.00
2017-08-07T15:33:04.981Z,3.00
2017-08-07T15:35:32.607Z,2.83
2017-08-07T15:38:00.207Z,3.20
2017-08-07T15:40:28.153Z,3.37
2017-08-07T15:42:55.781Z,3.10
2017-08-07T15:45:23.408Z,2.43
2017-08-07T15:47:51.150Z,2.27
2017-08-07T15:50:18.784Z,2.10
2017-08-07T15:52:46.414Z,2.77
2017-08-07T15:55:14.032Z,2.87
2017-08-07T15:57:41.717Z,2.60
2017-08-07T16:00:09.320Z,2.70
2017-08-07T16:02:37.005Z,2.77
2017-08-07T16:05:04.625Z,3.00
2017-08-07T16:07:32.236Z,3.20
2017-08-07T16:09:59.894Z,2.43
2017-08-07T16:12:27.552Z,3.30
2017-08-07T16:14:55.804Z,3.10
2017-08-07T16:17:23.498Z,3.00
2017-08-07T16:19:51.123Z,2.90
2017-08-07T16:22:18.772Z,2.77
2017-08-07T16:24:46.395Z,2.93
2017-08-07T16:27:14.065Z,3.17
2017-08-07T16:29:53.598Z,2.40
2017-08-07T16:32:21.365Z,6.10
2017-08-07T16:34:48.998Z,7.80
2017-08-07T16:37:17.087Z,10.53
2017-08-07T16:39:44.715Z,9.63
2017-08-07T16:42:12.338Z,4.50
2017-08-07T16:44:40.023Z,5.40
2017-08-07T16:47:07.653Z,7.80
2017-08-07T16:49:35.417Z,3.13
2017-08-07T16:52:03.052Z,8.80
2017-08-07T16:54:30.795Z,4.50
2017-08-07T16:56:58.405Z,3.67
2017-08-07T16:59:26.389Z,4.70
2017-08-07T17:01:54.016Z,4.30
2017-08-07T17:04:21.715Z,5.80
2017-08-07T17:06:49.431Z,7.87
2017-08-07T17:09:17.170Z,2.70
2017-08-07T17:11:44.821Z,3.50
2017-08-07T17:14:12.454Z,2.83
2017-08-07T17:16:40.384Z,2.60
2017-08-07T17:19:08.021Z,2.93
2017-08-07T17:21:35.790Z,2.90
2017-08-07T17:24:03.409Z,2.97
2017-08-07T17:26:31.072Z,3.30
2017-08-07T17:28:59.014Z,2.77
2017-08-07T17:31:27.125Z,2.53
2017-08-07T17:33:54.759Z,2.60
2017-08-07T17:36:22.408Z,2.50
2017-08-07T17:38:50.027Z,2.77
2017-08-07T17:41:17.684Z,2.67
2017-08-07T17:43:45.338Z,2.17
2017-08-07T17:46:13.085Z,3.40
2017-08-07T17:48:40.793Z,3.40
2017-08-07T17:51:08.805Z,3.80
2017-08-07T17:53:36.421Z,3.07
2017-08-07T17:56:04.028Z,2.97
2017-08-07T17:58:31.693Z,2.97
2017-08-07T18:00:59.361Z,2.60
2017-08-07T18:03:27.014Z,2.63
2017-08-07T18:05:54.643Z,2.87
2017-08-07T18:08:22.644Z,2.73
2017-08-07T18:10:50.290Z,2.80
2017-08-07T18:13:17.913Z,3.07
2017-08-07T18:15:45.548Z,3.10
2017-08-07T18:18:13.612Z,3.30
2017-08-07T18:20:41.321Z,3.10
2017-08-07T18:23:08.980Z,2.87
2017-08-07T18:25:37.133Z,3.73
2017-08-07T18:28:04.764Z,3.10
2017-08-07T18:30:32.496Z,2.80
2017-08-07T18:33:00.228Z,3.27
2017-08-07T18:35:27.896Z,3.30
2017-08-07T18:37:55.532Z,2.93
2017-08-07T18:40:23.158Z,2.90
2017-08-07T18:42:51.701Z,2.70
2017-08-07T18:45:19.325Z,3.00
2017-08-07T18:47:47.090Z,3.00
2017-08-07T18:50:14.725Z,2.40
2017-08-07T18:52:42.603Z,2.80
2017-08-07T18:55:10.274Z,2.53
2017-08-07T18:57:37.973Z,2.50
2017-08-07T19:00:05.668Z,2.60
2017-08-07T19:02:33.979Z,2.70
2017-08-07T19:05:01.635Z,2.80
2017-08-07T19:07:29.328Z,3.07
2017-08-07T19:09:58.214Z,2.50
2017-08-07T19:12:26.023Z,3.00
2017-08-07T19:14:53.671Z,3.30
2017-08-07T19:17:21.310Z,3.07
2017-08-07T19:19:48.916Z,3.30
2017-08-07T19:22:17.493Z,3.00
2017-08-07T19:24:45.217Z,2.53
2017-08-07T19:27:13.156Z,3.30
2017-08-07T19:29:42.221Z,4.00
2017-08-07T19:32:09.828Z,3.07
2017-08-07T19:34:37.650Z,2.77
2017-08-07T19:37:05.375Z,3.60
2017-08-07T19:39:33.135Z,3.10
2017-08-07T19:42:00.747Z,3.03
2017-08-07T19:44:28.478Z,3.47
2017-08-07T19:46:56.084Z,3.00
2017-08-07T19:49:24.163Z,3.20
2017-08-07T19:51:51.865Z,3.07
2017-08-07T19:54:19.649Z,3.97
2017-08-07T19:56:47.291Z,3.23
2017-08-07T19:59:14.918Z,3.30
2017-08-07T20:01:42.612Z,4.00
2017-08-07T20:04:10.240Z,6.70
2017-08-07T20:06:38.114Z,3.67
2017-08-07T20:09:05.856Z,4.00
2017-08-07T20:11:33.606Z,3.57
2017-08-07T20:14:01.331Z,3.43
2017-08-07T20:16:29.379Z,4.97
2017-08-07T20:18:57.023Z,4.70
2017-08-07T20:21:24.649Z,3.70
2017-08-07T20:23:52.306Z,3.33
2017-08-07T20:26:19.941Z,3.63
2017-08-07T20:28:47.614Z,3.83
2017-08-07T20:31:15.199Z,3.70
2017-08-07T20:33:42.824Z,4.40
2017-08-07T20:36:10.434Z,4.00
2017-08-07T20:38:40.145Z,3.57
2017-08-07T20:41:07.769Z,3.93
2017-08-07T20:43:35.373Z,4.10
2017-08-07T20:46:03.026Z,5.00
2017-08-07T20:48:30.635Z,4.17
2017-08-07T20:50:58.236Z,4.10
2017-08-07T20:53:25.854Z,3.70
2017-08-07T20:55:54.163Z,3.97
2017-08-07T20:58:21.795Z,3.93
2017-08-07T21:00:49.507Z,4.47
2017-08-07T21:03:17.145Z,4.10
2017-08-07T21:05:44.764Z,4.20
2017-08-07T21:08:12.386Z,4.20
2017-08-07T21:10:39.997Z,3.67
2017-08-07T21:13:07.661Z,4.20
2017-08-07T21:15:35.259Z,4.50
2017-08-07T21:18:03.206Z,4.43
2017-08-07T21:20:30.857Z,5.30
2017-08-07T21:22:58.478Z,4.30
2017-08-07T21:25:26.133Z,4.80
2017-08-07T21:27:53.764Z,4.23
2017-08-07T21:30:21.661Z,4.20
2017-08-07T21:32:49.250Z,4.57
2017-08-07T21:35:16.854Z,4.90
2017-08-07T21:37:44.503Z,4.27
2017-08-07T21:40:12.118Z,4.87
2017-08-07T21:42:39.750Z,4.20
2017-08-07T21:45:07.370Z,4.40
2017-08-07T21:47:34.993Z,4.40
2017-08-07T21:50:02.599Z,4.70
2017-08-07T21:52:30.224Z,4.37
2017-08-07T21:54:57.818Z,4.67
2017-08-07T21:57:25.879Z,4.60
2017-08-07T21:59:53.484Z,5.10
2017-08-07T22:02:21.100Z,4.20
2017-08-07T22:04:48.729Z,4.80
2017-08-07T22:07:16.325Z,5.20
2017-08-07T22:09:44.038Z,4.50
2017-08-07T22:12:11.650Z,4.67
2017-08-07T22:14:39.623Z,4.77
2017-08-07T22:17:07.225Z,5.37
2017-08-07T22:19:34.830Z,5.33
2017-08-07T22:22:02.474Z,5.40
2017-08-07T22:24:30.074Z,5.13
2017-08-07T22:26:57.722Z,5.13
2017-08-07T22:29:25.389Z,4.63
2017-08-07T22:31:53.050Z,4.80
2017-08-07T22:34:20.647Z,5.13
2017-08-07T22:36:48.595Z,5.37
2017-08-07T22:39:16.210Z,5.00
2017-08-07T22:41:43.815Z,5.60
2017-08-07T22:44:11.477Z,5.73
2017-08-07T22:46:39.200Z,5.30
2017-08-07T22:49:06.902Z,5.43
2017-08-07T22:51:34.590Z,6.60
2017-08-07T22:54:02.220Z,5.70
2017-08-07T22:56:29.842Z,5.67
2017-08-07T22:58:57.472Z,5.63
2017-08-07T23:01:25.073Z,6.20
2017-08-07T23:03:53.103Z,5.73
2017-08-07T23:06:20.708Z,5.40
2017-08-07T23:08:48.316Z,5.80
2017-08-07T23:11:16.009Z,6.10
2017-08-07T23:13:43.609Z,6.30
2017-08-07T23:16:11.308Z,6.13
2017-08-07T23:18:38.909Z,6.07
2017-08-07T23:21:06.827Z,6.13
2017-08-07T23:23:34.426Z,6.70
2017-08-07T23:26:02.053Z,6.27
2017-08-07T23:28:29.703Z,5.30
2017-08-07T23:30:57.314Z,5.93
2017-08-07T23:33:24.952Z,6.13
2017-08-07T23:35:52.556Z,6.70
2017-08-07T23:38:20.552Z,6.10
2017-08-07T23:40:48.135Z,6.23
2017-08-07T23:43:15.739Z,6.17
2017-08-07T23:45:43.448Z,5.80
2017-08-07T23:48:11.041Z,6.60
2017-08-07T23:50:38.650Z,6.00
2017-08-07T23:53:06.251Z,7.53
2017-08-07T23:55:34.180Z,6.17
2017-08-07T23:58:01.785Z,7.13
